createdAt,value
2022-12-08T00:01:46.847Z,9.33
2022-12-08T00:04:15.737Z,8.80
2022-12-08T00:07:03.314Z,8.30
2022-12-08T00:09:38.694Z,8.70
2022-12-08T00:12:10.267Z,10.30
2022-12-08T00:14:40.557Z,16.33
2022-12-08T00:17:10.540Z,10.33
2022-12-08T00:19:40.153Z,8.30
2022-12-08T00:22:11.505Z,9.60
2022-12-08T00:24:41.026Z,8.67
2022-12-08T00:27:10.946Z,10.20
2022-12-08T00:29:39.523Z,9.37
2022-12-08T00:32:08.456Z,10.50
2022-12-08T00:34:36.962Z,10.33
2022-12-08T00:37:06.280Z,10.00
2022-12-08T00:39:36.578Z,10.17
2022-12-08T00:42:14.232Z,9.87
2022-12-08T00:44:43.899Z,10.80
2022-12-08T00:47:13.293Z,10.40
2022-12-08T00:49:42.387Z,10.30
2022-12-08T00:52:12.655Z,10.10
2022-12-08T00:54:42.118Z,10.73
2022-12-08T00:57:10.657Z,10.80
2022-12-08T00:59:38.859Z,9.63
2022-12-08T01:02:07.950Z,10.07
2022-12-08T01:04:36.722Z,9.37
2022-12-08T01:07:05.649Z,9.70
2022-12-08T01:09:33.981Z,9.93
2022-12-08T01:12:04.377Z,14.07
2022-12-08T01:14:32.730Z,19.37
2022-12-08T01:17:01.752Z,11.13
2022-12-08T01:19:31.334Z,9.67
2022-12-08T01:21:59.698Z,9.73
2022-12-08T01:24:28.237Z,9.57
2022-12-08T01:26:56.953Z,11.03
2022-12-08T01:29:28.237Z,10.13
2022-12-08T01:31:58.745Z,9.97
2022-12-08T01:34:27.501Z,9.03
2022-12-08T01:36:55.888Z,11.10
2022-12-08T01:39:24.020Z,10.17
2022-12-08T01:41:53.150Z,10.30
2022-12-08T01:45:02.681Z,10.67
2022-12-08T01:47:40.049Z,10.50
2022-12-08T01:50:12.481Z,10.63
2022-12-08T01:52:44.463Z,11.77
2022-12-08T01:55:18.780Z,11.13
2022-12-08T01:57:50.467Z,9.37
2022-12-08T02:00:23.490Z,11.00
2022-12-08T02:02:56.284Z,9.97
2022-12-08T02:05:29.408Z,10.90
2022-12-08T02:07:59.921Z,11.83
2022-12-08T02:10:31.079Z,11.73
2022-12-08T02:13:01.643Z,9.97
2022-12-08T02:15:38.605Z,10.03
2022-12-08T02:18:21.570Z,10.13
2022-12-08T02:20:58.968Z,9.20
2022-12-08T02:23:38.278Z,10.30
2022-12-08T02:26:41.619Z,11.50
2022-12-08T02:29:47.871Z,9.90
2022-12-08T02:32:40.671Z,10.33
2022-12-08T02:35:14.518Z,9.17
2022-12-08T02:37:49.684Z,9.80
2022-12-08T02:40:23.627Z,11.10
2022-12-08T02:42:57.626Z,13.77
2022-12-08T02:45:32.704Z,12.03
2022-12-08T02:48:01.770Z,11.37
2022-12-08T02:50:31.968Z,9.87
2022-12-08T02:53:00.094Z,9.27
2022-12-08T02:55:33.458Z,9.57
2022-12-08T02:58:24.912Z,10.47
2022-12-08T03:01:08.201Z,9.80
2022-12-08T03:03:46.637Z,9.13
2022-12-08T03:06:26.156Z,10.10
2022-12-08T03:08:59.609Z,9.93
2022-12-08T03:11:35.545Z,9.77
2022-12-08T03:14:07.611Z,10.53
2022-12-08T03:16:39.738Z,9.67
2022-12-08T03:19:13.396Z,10.13
2022-12-08T03:21:48.232Z,10.67
2022-12-08T03:24:18.742Z,12.00
2022-12-08T03:26:53.764Z,11.33
2022-12-08T03:29:22.207Z,11.33
2022-12-08T03:31:54.922Z,11.37
2022-12-08T03:34:24.946Z,11.73
2022-12-08T03:36:54.342Z,10.80
2022-12-08T03:39:22.449Z,11.30
2022-12-08T03:41:50.488Z,10.43
2022-12-08T03:44:18.585Z,10.60
2022-12-08T03:46:46.916Z,10.30
2022-12-08T03:49:14.969Z,10.73
2022-12-08T03:51:43.015Z,11.83
2022-12-08T03:54:12.438Z,11.77
2022-12-08T03:56:41.119Z,10.33
2022-12-08T03:59:10.165Z,11.40
2022-12-08T04:01:38.365Z,11.23
2022-12-08T04:04:06.592Z,11.40
2022-12-08T04:06:34.753Z,9.63
2022-12-08T04:09:02.793Z,9.83
2022-12-08T04:11:32.208Z,10.00
2022-12-08T04:14:00.238Z,9.90
2022-12-08T04:16:28.627Z,10.57
2022-12-08T04:18:56.870Z,10.57
2022-12-08T04:21:24.953Z,10.20
2022-12-08T04:23:57.649Z,10.20
2022-12-08T04:26:29.042Z,11.20
2022-12-08T04:28:58.434Z,10.57
2022-12-08T04:31:26.617Z,10.50
2022-12-08T04:33:54.677Z,9.37
2022-12-08T04:36:22.725Z,10.77
2022-12-08T04:38:50.823Z,10.70
2022-12-08T04:41:18.854Z,10.80
2022-12-08T04:43:46.887Z,11.00
2022-12-08T04:46:16.395Z,10.10
2022-12-08T04:48:44.538Z,9.97
2022-12-08T04:51:17.784Z,10.73
2022-12-08T04:53:47.217Z,10.50
2022-12-08T04:56:15.876Z,10.00
2022-12-08T04:58:43.967Z,10.93
2022-12-08T05:01:12.798Z,11.90
2022-12-08T05:03:42.266Z,11.03
2022-12-08T05:06:13.496Z,11.13
2022-12-08T05:08:41.736Z,12.17
2022-12-08T05:11:11.759Z,10.40
2022-12-08T05:13:41.385Z,12.23
2022-12-08T05:16:12.116Z,11.90
2022-12-08T05:18:42.518Z,11.67
2022-12-08T05:21:10.802Z,11.97
2022-12-08T05:23:38.937Z,16.40
2022-12-08T05:26:07.182Z,11.97
2022-12-08T05:28:43.542Z,12.47
2022-12-08T05:31:12.679Z,12.47
2022-12-08T05:33:42.677Z,11.77
2022-12-08T05:36:13.155Z,12.80
2022-12-08T05:38:41.401Z,12.73
2022-12-08T05:41:10.043Z,12.07
2022-12-08T05:43:38.088Z,12.37
2022-12-08T05:46:06.540Z,13.10
2022-12-08T05:48:34.824Z,18.17
2022-12-08T05:51:04.513Z,14.03
2022-12-08T05:53:32.694Z,58.10
2022-12-08T05:56:00.757Z,21.60
2022-12-08T05:58:28.858Z,26.07
2022-12-08T06:00:56.902Z,12.10
2022-12-08T06:03:25.139Z,14.67
2022-12-08T06:05:53.339Z,16.23
2022-12-08T06:08:22.833Z,16.47
2022-12-08T06:10:51.019Z,13.77
2022-12-08T06:13:19.103Z,16.87
2022-12-08T06:15:47.113Z,18.60
2022-12-08T06:18:15.174Z,23.80
2022-12-08T06:20:43.204Z,13.63
2022-12-08T06:23:11.278Z,11.27
2022-12-08T06:25:40.701Z,11.17
2022-12-08T06:28:08.736Z,12.70
2022-12-08T06:30:38.596Z,12.30
2022-12-08T06:33:06.645Z,12.40
2022-12-08T06:35:34.682Z,13.07
2022-12-08T06:38:02.741Z,13.03
2022-12-08T06:40:30.765Z,13.67
2022-12-08T06:43:00.200Z,14.77
2022-12-08T06:45:28.267Z,19.43
2022-12-08T06:47:56.321Z,14.17
2022-12-08T06:50:24.334Z,15.37
2022-12-08T06:53:02.736Z,16.47
2022-12-08T06:55:58.039Z,14.93
2022-12-08T06:58:22.624Z,14.67
2022-12-08T07:00:50.701Z,13.37
2022-12-08T07:03:18.905Z,13.80
2022-12-08T07:05:47.019Z,14.47
2022-12-08T07:08:15.360Z,13.30
2022-12-08T07:10:43.470Z,14.30
2022-12-08T07:13:11.509Z,13.20
2022-12-08T07:15:40.943Z,13.30
2022-12-08T07:18:09.094Z,13.67
2022-12-08T07:20:37.273Z,13.07
2022-12-08T07:23:05.306Z,13.00
2022-12-08T07:25:33.529Z,12.67
2022-12-08T07:28:01.549Z,13.63
2022-12-08T07:30:29.796Z,14.63
2022-12-08T07:32:59.284Z,12.77
2022-12-08T07:35:27.487Z,12.80
2022-12-08T07:37:55.504Z,13.20
2022-12-08T07:40:23.572Z,13.17
2022-12-08T07:42:51.611Z,13.10
2022-12-08T07:45:19.798Z,12.87
2022-12-08T07:47:47.817Z,11.63
2022-12-08T07:50:17.405Z,11.90
2022-12-08T07:52:45.458Z,12.73
2022-12-08T07:55:13.602Z,11.80
2022-12-08T07:57:41.631Z,13.00
2022-12-08T08:00:11.773Z,12.10
2022-12-08T08:02:40.666Z,12.47
2022-12-08T08:05:09.873Z,12.57
2022-12-08T08:07:39.855Z,11.70
2022-12-08T08:10:09.084Z,11.37
2022-12-08T08:12:37.412Z,10.93
2022-12-08T08:15:08.860Z,11.23
2022-12-08T08:17:38.411Z,11.23
2022-12-08T08:20:08.570Z,11.67
2022-12-08T08:22:37.201Z,11.30
2022-12-08T08:25:07.400Z,11.33
2022-12-08T08:27:35.422Z,11.43
2022-12-08T08:30:03.984Z,11.00
2022-12-08T08:32:34.408Z,13.20
2022-12-08T08:35:03.247Z,11.40
2022-12-08T08:37:31.297Z,11.10
2022-12-08T08:39:59.369Z,12.87
2022-12-08T08:42:28.969Z,10.97
2022-12-08T08:44:56.997Z,11.73
2022-12-08T08:47:25.102Z,11.17
2022-12-08T08:49:53.242Z,11.90
2022-12-08T08:52:21.292Z,11.47
2022-12-08T08:54:49.336Z,10.60
2022-12-08T08:57:23.680Z,9.27
2022-12-08T08:59:55.095Z,9.60
2022-12-08T09:02:23.786Z,10.53
2022-12-08T09:04:52.478Z,10.50
2022-12-08T09:07:20.578Z,9.17
2022-12-08T09:09:48.672Z,9.17
2022-12-08T09:12:16.794Z,14.03
2022-12-08T09:14:45.840Z,13.37
2022-12-08T09:17:15.305Z,17.33
2022-12-08T09:19:43.428Z,12.90
2022-12-08T09:22:11.451Z,8.20
2022-12-08T09:24:39.526Z,8.33
2022-12-08T09:27:07.570Z,7.90
2022-12-08T09:29:36.328Z,7.70
2022-12-08T09:32:04.904Z,7.53
2022-12-08T09:34:34.453Z,6.70
2022-12-08T09:37:02.558Z,7.73
2022-12-08T09:39:30.583Z,6.20
2022-12-08T09:42:00.981Z,7.27
2022-12-08T09:44:51.766Z,7.20
2022-12-08T09:47:23.298Z,7.43
2022-12-08T09:50:00.802Z,6.10
2022-12-08T09:52:35.042Z,5.30
2022-12-08T09:55:12.618Z,5.67
2022-12-08T09:57:40.697Z,4.60
2022-12-08T10:00:13.345Z,5.00
2022-12-08T10:02:41.623Z,5.70
2022-12-08T10:05:15.625Z,6.37
2022-12-08T10:07:49.173Z,6.63
2022-12-08T10:10:29.186Z,5.93
2022-12-08T10:13:07.861Z,6.47
2022-12-08T10:15:45.368Z,6.13
2022-12-08T10:18:17.196Z,5.87
2022-12-08T10:20:48.645Z,6.20
2022-12-08T10:23:26.956Z,6.13
2022-12-08T10:26:01.749Z,6.00
2022-12-08T10:28:30.021Z,5.43
2022-12-08T10:30:58.200Z,4.90
2022-12-08T10:33:26.679Z,4.30
2022-12-08T10:35:58.433Z,3.93
2022-12-08T10:38:30.900Z,3.37
2022-12-08T10:41:05.612Z,3.27
2022-12-08T10:43:34.854Z,3.33
2022-12-08T10:46:12.041Z,3.50
2022-12-08T10:48:49.489Z,3.70
2022-12-08T10:51:28.350Z,3.30
2022-12-08T10:53:56.747Z,3.40
2022-12-08T10:56:28.699Z,3.70
2022-12-08T10:59:12.897Z,7.87
2022-12-08T11:01:42.555Z,3.43
2022-12-08T11:04:16.707Z,15.97
2022-12-08T11:06:46.831Z,4.10
2022-12-08T11:09:31.856Z,11.07
2022-12-08T11:12:01.141Z,10.10
2022-12-08T11:14:31.982Z,3.57
2022-12-08T11:17:07.001Z,4.33
2022-12-08T11:19:39.081Z,3.77
2022-12-08T11:22:25.943Z,4.90
2022-12-08T11:25:11.266Z,3.20
2022-12-08T11:27:41.067Z,4.67
2022-12-08T11:30:16.659Z,3.97
2022-12-08T11:32:46.391Z,4.67
2022-12-08T11:35:22.649Z,3.10
2022-12-08T11:37:52.553Z,2.60
2022-12-08T11:40:23.958Z,3.10
2022-12-08T11:43:00.098Z,2.70
2022-12-08T11:45:33.240Z,3.20
2022-12-08T11:48:11.827Z,3.00
2022-12-08T11:50:47.301Z,2.97
2022-12-08T11:53:24.278Z,2.87
2022-12-08T11:55:56.312Z,2.70
2022-12-08T11:58:29.234Z,3.10
2022-12-08T12:00:58.029Z,2.70
2022-12-08T12:03:32.387Z,2.70
2022-12-08T12:06:46.660Z,2.70
2022-12-08T12:09:18.819Z,2.73
2022-12-08T12:12:15.949Z,2.37
2022-12-08T12:15:25.341Z,2.67
2022-12-08T12:17:56.982Z,2.57
2022-12-08T12:20:29.476Z,3.03
2022-12-08T12:23:03.597Z,2.67
2022-12-08T12:25:35.736Z,3.60
2022-12-08T12:28:06.256Z,3.23
2022-12-08T12:30:53.566Z,3.03
2022-12-08T12:33:23.617Z,3.20
2022-12-08T12:35:51.906Z,2.50
2022-12-08T12:38:42.005Z,2.80
2022-12-08T12:41:14.288Z,3.70
2022-12-08T12:44:02.468Z,2.70
2022-12-08T12:46:58.604Z,2.57
2022-12-08T12:50:06.767Z,2.50
2022-12-08T12:52:43.343Z,2.50
2022-12-08T12:55:49.386Z,2.90
2022-12-08T12:58:40.781Z,3.13
2022-12-08T13:01:42.561Z,2.57
2022-12-08T13:04:12.509Z,2.60
2022-12-08T13:06:43.351Z,2.70
2022-12-08T13:09:28.613Z,2.80
2022-12-08T13:11:59.391Z,2.90
2022-12-08T13:14:35.759Z,2.30
2022-12-08T13:17:09.138Z,3.37
2022-12-08T13:19:39.675Z,2.47
2022-12-08T13:22:40.727Z,2.77
2022-12-08T13:25:38.460Z,3.10
2022-12-08T13:28:18.668Z,2.80
2022-12-08T13:30:50.197Z,2.70
2022-12-08T13:33:23.610Z,2.87
2022-12-08T13:36:21.594Z,3.13
2022-12-08T13:38:55.086Z,3.03
2022-12-08T13:41:27.462Z,2.83
2022-12-08T13:47:24.586Z,3.03
2022-12-08T13:53:49.125Z,2.80
2022-12-08T13:58:20.040Z,3.53
2022-12-08T14:01:06.543Z,3.07
2022-12-08T14:04:04.697Z,2.37
2022-12-08T14:06:37.932Z,3.03
2022-12-08T14:09:11.155Z,3.67
2022-12-08T14:11:41.797Z,4.13
2022-12-08T14:14:27.195Z,2.80
2022-12-08T14:17:04.023Z,4.00
2022-12-08T14:19:35.640Z,4.80
2022-12-08T14:22:10.463Z,4.37
2022-12-08T14:24:38.475Z,2.60
2022-12-08T14:27:10.377Z,3.10
2022-12-08T14:29:45.240Z,3.20
2022-12-08T14:32:30.218Z,2.63
2022-12-08T14:35:02.337Z,2.80
2022-12-08T14:37:33.408Z,2.60
2022-12-08T14:40:04.989Z,2.63
2022-12-08T14:42:44.049Z,3.17
2022-12-08T14:45:14.204Z,3.10
2022-12-08T14:47:42.610Z,2.83
2022-12-08T14:50:39.411Z,3.50
2022-12-08T14:53:16.181Z,3.50
2022-12-08T14:55:46.203Z,3.60
2022-12-08T14:58:22.105Z,3.60
2022-12-08T15:00:52.399Z,4.30
2022-12-08T15:03:23.135Z,3.57
2022-12-08T15:05:56.439Z,3.10
2022-12-08T15:08:24.886Z,3.53
2022-12-08T15:11:14.708Z,2.80
2022-12-08T15:13:46.356Z,3.17
2022-12-08T15:16:30.455Z,3.20
2022-12-08T15:19:04.908Z,3.07
2022-12-08T15:21:39.143Z,3.30
2022-12-08T15:24:07.588Z,3.70
2022-12-08T15:26:41.921Z,3.47
2022-12-08T15:29:14.953Z,3.60
2022-12-08T15:31:43.089Z,2.97
2022-12-08T15:34:11.124Z,2.90
2022-12-08T15:36:42.929Z,3.03
2022-12-08T15:39:29.494Z,2.83
2022-12-08T15:41:57.608Z,4.33
2022-12-08T15:44:25.742Z,5.87
2022-12-08T15:46:54.598Z,10.47
2022-12-08T15:49:24.936Z,7.33
2022-12-08T15:52:00.741Z,6.03
2022-12-08T15:54:36.034Z,4.10
2022-12-08T15:57:19.007Z,4.00
2022-12-08T15:59:48.585Z,4.00
2022-12-08T16:02:22.393Z,3.73
2022-12-08T16:07:41.442Z,4.17
2022-12-08T16:10:16.357Z,4.60
2022-12-08T16:15:59.070Z,6.07
2022-12-08T16:18:30.536Z,6.60
2022-12-08T16:21:10.326Z,5.60
2022-12-08T16:23:48.717Z,4.90
2022-12-08T16:29:08.176Z,5.60
2022-12-08T16:31:36.555Z,4.90
2022-12-08T16:34:04.692Z,5.87
2022-12-08T16:36:32.801Z,4.60
2022-12-08T16:39:02.340Z,8.83
2022-12-08T16:41:53.364Z,4.60
2022-12-08T16:44:21.486Z,4.60
2022-12-08T16:46:49.527Z,4.10
2022-12-08T16:49:17.578Z,3.97
2022-12-08T16:51:46.010Z,4.00
2022-12-08T16:54:15.694Z,4.70
2022-12-08T16:56:44.201Z,4.70
2022-12-08T16:59:12.234Z,4.30
2022-12-08T17:01:40.577Z,4.67
2022-12-08T17:04:31.475Z,4.70
2022-12-08T17:06:57.799Z,4.77
2022-12-08T17:09:28.489Z,4.03
2022-12-08T17:12:01.822Z,4.83
2022-12-08T17:14:33.942Z,4.37
2022-12-08T17:17:02.025Z,4.97
2022-12-08T17:19:30.179Z,4.80
2022-12-08T17:21:58.220Z,4.57
2022-12-08T17:24:29.486Z,4.53
2022-12-08T17:26:58.083Z,4.77
2022-12-08T17:29:26.248Z,4.77
2022-12-08T17:31:54.323Z,5.43
2022-12-08T17:34:22.434Z,5.50
2022-12-08T17:36:50.559Z,5.53
2022-12-08T17:39:19.355Z,4.50
2022-12-08T17:41:49.095Z,5.20
2022-12-08T17:44:19.195Z,6.13
2022-12-08T17:46:52.582Z,5.47
2022-12-08T17:49:23.446Z,5.33
2022-12-08T17:51:53.590Z,7.00
2022-12-08T17:54:22.388Z,5.77
2022-12-08T17:56:52.290Z,5.87
2022-12-08T17:59:20.866Z,6.27
2022-12-08T18:01:48.996Z,9.37
2022-12-08T18:04:17.144Z,6.20
2022-12-08T18:06:45.235Z,8.67
2022-12-08T18:09:13.566Z,14.57
2022-12-08T18:11:41.969Z,50.57
2022-12-08T18:14:14.163Z,70.37
2022-12-08T18:16:44.141Z,7.00
2022-12-08T18:19:13.464Z,9.27
2022-12-08T18:21:41.929Z,8.73
2022-12-08T18:24:16.281Z,14.60
2022-12-08T18:26:44.369Z,8.37
2022-12-08T18:29:13.842Z,7.70
2022-12-08T18:31:41.950Z,7.70
2022-12-08T18:34:09.993Z,11.13
2022-12-08T18:36:38.036Z,7.70
2022-12-08T18:39:10.698Z,7.37
2022-12-08T18:41:39.237Z,6.27
2022-12-08T18:44:07.280Z,6.00
2022-12-08T18:46:36.752Z,7.77
2022-12-08T18:49:04.834Z,14.00
2022-12-08T18:51:32.906Z,13.83
2022-12-08T18:54:00.943Z,21.97
2022-12-08T18:56:30.556Z,26.47
2022-12-08T18:59:03.608Z,8.77
2022-12-08T19:01:32.569Z,17.13
2022-12-08T19:06:51.188Z,19.07
2022-12-08T19:09:19.472Z,32.73
2022-12-08T19:11:47.869Z,27.97
2022-12-08T19:14:16.207Z,13.53
2022-12-08T19:16:44.249Z,17.10
2022-12-08T19:19:13.738Z,10.53
2022-12-08T19:21:46.279Z,13.73
2022-12-08T19:24:15.257Z,6.70
2022-12-08T19:26:43.705Z,5.90
2022-12-08T19:29:12.398Z,6.27
2022-12-08T19:31:41.330Z,5.80
2022-12-08T19:34:10.617Z,6.07
2022-12-08T19:36:42.686Z,7.73
2022-12-08T19:39:33.291Z,11.07
2022-12-08T19:42:18.795Z,10.73
2022-12-08T19:44:55.956Z,8.13
2022-12-08T19:47:25.338Z,9.07
2022-12-08T19:49:54.816Z,9.07
2022-12-08T19:52:24.395Z,8.67
2022-12-08T19:54:52.567Z,8.13
2022-12-08T19:57:20.666Z,9.03
2022-12-08T19:59:53.099Z,8.37
2022-12-08T20:02:24.487Z,7.50
2022-12-08T20:04:52.660Z,7.80
2022-12-08T20:07:20.749Z,7.87
2022-12-08T20:09:50.195Z,8.53
2022-12-08T20:12:18.294Z,7.43
2022-12-08T20:14:46.534Z,8.93
2022-12-08T20:17:14.667Z,7.90
2022-12-08T20:19:42.757Z,7.10
2022-12-08T20:22:10.878Z,9.27
2022-12-08T20:24:51.885Z,8.77
2022-12-08T20:27:26.078Z,7.73
2022-12-08T20:29:54.121Z,6.73
2022-12-08T20:32:23.217Z,6.80
2022-12-08T20:34:52.000Z,7.03
2022-12-08T20:37:20.123Z,58.50
2022-12-08T20:39:48.740Z,31.17
2022-12-08T20:42:16.875Z,17.70
2022-12-08T20:44:46.386Z,12.87
2022-12-08T20:47:14.555Z,6.83
2022-12-08T20:49:42.849Z,7.40
2022-12-08T20:52:11.061Z,7.40
2022-12-08T20:54:39.210Z,7.97
2022-12-08T20:57:07.505Z,7.83
2022-12-08T20:59:35.992Z,8.87
2022-12-08T21:02:05.557Z,8.87
2022-12-08T21:04:34.022Z,9.83
2022-12-08T21:07:02.194Z,8.63
2022-12-08T21:09:30.380Z,8.50
2022-12-08T21:11:58.855Z,9.57
2022-12-08T21:14:26.992Z,14.40
2022-12-08T21:16:56.218Z,11.80
2022-12-08T21:19:26.047Z,9.23
2022-12-08T21:21:54.121Z,9.33
2022-12-08T21:24:22.234Z,8.00
2022-12-08T21:26:50.434Z,13.90
2022-12-08T21:29:18.566Z,16.23
2022-12-08T21:31:46.806Z,14.87
2022-12-08T21:34:15.310Z,13.17
2022-12-08T21:36:44.905Z,10.00
2022-12-08T21:39:13.158Z,7.43
2022-12-08T21:41:59.053Z,11.63
2022-12-08T21:44:27.223Z,10.90
2022-12-08T21:46:55.527Z,11.10
2022-12-08T21:49:23.849Z,12.50
2022-12-08T21:51:53.455Z,14.03
2022-12-08T21:54:21.572Z,11.17
2022-12-08T21:56:50.465Z,11.40
2022-12-08T21:59:19.838Z,10.87
2022-12-08T22:01:48.489Z,10.43
2022-12-08T22:04:21.810Z,11.23
2022-12-08T22:06:50.146Z,9.87
2022-12-08T22:09:20.091Z,9.87
2022-12-08T22:11:48.310Z,9.23
2022-12-08T22:14:16.491Z,9.10
2022-12-08T22:16:44.935Z,9.73
2022-12-08T22:19:13.523Z,7.90
2022-12-08T22:21:42.042Z,7.77
2022-12-08T22:24:10.742Z,6.97
2022-12-08T22:26:40.306Z,6.23
2022-12-08T22:29:09.201Z,6.50
2022-12-08T22:31:37.407Z,6.03
2022-12-08T22:34:06.290Z,6.67
2022-12-08T22:36:35.144Z,6.40
2022-12-08T22:39:04.972Z,6.30
2022-12-08T22:41:34.139Z,5.80
2022-12-08T22:44:07.305Z,5.87
2022-12-08T22:46:35.902Z,7.17
2022-12-08T22:49:04.251Z,7.60
2022-12-08T22:51:32.675Z,7.60
2022-12-08T22:54:01.069Z,6.93
2022-12-08T22:56:29.154Z,6.60
2022-12-08T22:58:57.251Z,5.50
2022-12-08T23:01:30.014Z,5.10
2022-12-08T23:03:58.647Z,5.93
2022-12-08T23:06:27.932Z,11.90
2022-12-08T23:08:56.658Z,8.70
2022-12-08T23:11:26.662Z,6.93
2022-12-08T23:13:56.329Z,9.00
2022-12-08T23:16:27.440Z,7.77
2022-12-08T23:18:55.631Z,7.10
2022-12-08T23:21:24.882Z,5.97
2022-12-08T23:23:54.198Z,5.83
2022-12-08T23:26:24.808Z,6.00
2022-12-08T23:28:54.051Z,5.50
2022-12-08T23:31:23.533Z,5.40
2022-12-08T23:33:53.605Z,5.00
2022-12-08T23:36:25.034Z,4.77
2022-12-08T23:38:54.264Z,4.50
2022-12-08T23:41:23.566Z,5.10
2022-12-08T23:43:53.323Z,5.03
2022-12-08T23:46:23.721Z,5.20
2022-12-08T23:48:53.942Z,4.77
2022-12-08T23:51:22.817Z,4.97
2022-12-08T23:53:51.385Z,5.13
2022-12-08T23:56:22.205Z,4.47
2022-12-08T23:58:52.757Z,4.73
